EXS219Q EGNM-EGJJ
Flight info
| Callsign | EXS219Q |
|---|---|
| Flight time | 1h 2m |
| Altitude | 35000 |
| Route | NELSA DCT BARTN N58 KARNO DCT ALHUP DCT ABWIV/N0439F360 DCT PACSE DCT SIDHO DCT KLAKI L149 BIGNO |
| Aircraft | B738/M-VW/N |
Departure
| Time | 2026-05-05 17:26 |
|---|---|
| Airport | Leeds Bradford Airport (EGNM) |
Arrival
| Time | 2026-05-05 18:29 |
|---|---|
| Airport | Jersey Airport (EGJJ) |
| Time | Latitude | Longitude | Altitude | Speed | Heading |
|---|---|---|---|---|---|
| 2026-05-05 16:43 | 53.86876 | -1.65621 | 662 ft | 0 kts | 1° |
| 2026-05-05 17:16 | 53.86862 | -1.65622 | 662 ft | 2 kts | 1° |
| 2026-05-05 17:16 | 53.86848 | -1.65623 | 663 ft | 2 kts | 1° |
| 2026-05-05 17:16 | 53.86833 | -1.65625 | 664 ft | 2 kts | 24° |
| 2026-05-05 17:16 | 53.86821 | -1.65641 | 665 ft | 2 kts | 55° |
| 2026-05-05 17:17 | 53.86816 | -1.65664 | 666 ft | 1 kts | 84° |
| 2026-05-05 17:17 | 53.86816 | -1.65670 | 666 ft | 0 kts | 90° |
| 2026-05-05 17:17 | 53.86816 | -1.65621 | 664 ft | 7 kts | 91° |
| 2026-05-05 17:17 | 53.86815 | -1.65552 | 661 ft | 3 kts | 91° |
| 2026-05-05 17:18 | 53.86814 | -1.65536 | 661 ft | 0 kts | 91° |
| 2026-05-05 17:18 | 53.86814 | -1.65535 | 660 ft | 0 kts | 91° |
| 2026-05-05 17:20 | 53.86814 | -1.65533 | 660 ft | 1 kts | 91° |
| 2026-05-05 17:20 | 53.86814 | -1.65497 | 659 ft | 4 kts | 91° |
| 2026-05-05 17:20 | 53.86803 | -1.65427 | 656 ft | 7 kts | 128° |
| 2026-05-05 17:20 | 53.86770 | -1.65413 | 656 ft | 3 kts | 182° |
| 2026-05-05 17:21 | 53.86751 | -1.65414 | 657 ft | 3 kts | 182° |
| 2026-05-05 17:21 | 53.86717 | -1.65417 | 658 ft | 6 kts | 183° |
| 2026-05-05 17:21 | 53.86659 | -1.65423 | 659 ft | 9 kts | 183° |
| 2026-05-05 17:22 | 53.86535 | -1.65437 | 665 ft | 8 kts | 182° |
| 2026-05-05 17:22 | 53.86472 | -1.65442 | 667 ft | 10 kts | 183° |
| 2026-05-05 17:22 | 53.86387 | -1.65450 | 669 ft | 13 kts | 183° |
| 2026-05-05 17:22 | 53.86286 | -1.65460 | 672 ft | 14 kts | 183° |
| 2026-05-05 17:23 | 53.86200 | -1.65447 | 675 ft | 11 kts | 153° |
| 2026-05-05 17:23 | 53.86131 | -1.65352 | 673 ft | 14 kts | 137° |
| 2026-05-05 17:23 | 53.86053 | -1.65232 | 668 ft | 14 kts | 138° |
| 2026-05-05 17:23 | 53.85981 | -1.65122 | 663 ft | 13 kts | 137° |
| 2026-05-05 17:24 | 53.85925 | -1.65020 | 657 ft | 10 kts | 116° |
| 2026-05-05 17:24 | 53.85902 | -1.64920 | 651 ft | 5 kts | 128° |
| 2026-05-05 17:24 | 53.85869 | -1.64915 | 650 ft | 5 kts | 218° |
| 2026-05-05 17:24 | 53.85865 | -1.64966 | 653 ft | 6 kts | 303° |
| 2026-05-05 17:25 | 53.85907 | -1.65008 | 656 ft | 3 kts | 320° |
| 2026-05-05 17:25 | 53.85909 | -1.65011 | 656 ft | 0 kts | 319° |
| 2026-05-05 17:25 | 53.86063 | -1.65238 | 668 ft | 61 kts | 317° |
| 2026-05-05 17:26 | 53.86539 | -1.65978 | 680 ft | 120 kts | 318° |
| 2026-05-05 17:26 | 53.87268 | -1.67117 | 711 ft | 164 kts | 320° |
| 2026-05-05 17:26 | 53.88047 | -1.68505 | 1318 ft | 164 kts | 315° |
| 2026-05-05 17:26 | 53.88797 | -1.69953 | 1964 ft | 165 kts | 315° |
| 2026-05-05 17:27 | 53.89563 | -1.71398 | 2500 ft | 172 kts | 315° |
| 2026-05-05 17:27 | 53.90305 | -1.73150 | 2827 ft | 194 kts | 300° |
| 2026-05-05 17:27 | 53.90695 | -1.75471 | 3077 ft | 225 kts | 273° |
| 2026-05-05 17:27 | 53.90297 | -1.78149 | 3611 ft | 247 kts | 246° |
| 2026-05-05 17:28 | 53.89297 | -1.80661 | 4187 ft | 265 kts | 233° |
| 2026-05-05 17:28 | 53.88083 | -1.82967 | 5020 ft | 268 kts | 231° |
| 2026-05-05 17:28 | 53.86832 | -1.85288 | 5929 ft | 267 kts | 233° |
| 2026-05-05 17:28 | 53.85622 | -1.87650 | 6810 ft | 267 kts | 234° |
| 2026-05-05 17:29 | 53.84433 | -1.90113 | 7036 ft | 267 kts | 242° |
| 2026-05-05 17:29 | 53.83882 | -1.92946 | 7047 ft | 253 kts | 269° |
| 2026-05-05 17:29 | 53.84035 | -1.95931 | 7103 ft | 255 kts | 286° |
| 2026-05-05 17:29 | 53.84672 | -1.98682 | 7911 ft | 255 kts | 295° |
| 2026-05-05 17:30 | 53.85516 | -2.01350 | 8710 ft | 258 kts | 296° |
| 2026-05-05 17:30 | 53.86239 | -2.04160 | 9413 ft | 260 kts | 283° |
| 2026-05-05 17:30 | 53.86521 | -2.07122 | 10193 ft | 258 kts | 271° |
| 2026-05-05 17:30 | 53.86531 | -2.10145 | 10906 ft | 260 kts | 266° |
| 2026-05-05 17:31 | 53.86427 | -2.13221 | 11600 ft | 263 kts | 260° |
| 2026-05-05 17:31 | 53.85961 | -2.16330 | 11802 ft | 284 kts | 244° |
| 2026-05-05 17:31 | 53.84771 | -2.19101 | 12058 ft | 303 kts | 220° |
| 2026-05-05 17:31 | 53.82947 | -2.20903 | 12873 ft | 307 kts | 207° |
| 2026-05-05 17:32 | 53.80926 | -2.22189 | 13590 ft | 314 kts | 203° |
| 2026-05-05 17:32 | 53.78865 | -2.23347 | 14389 ft | 316 kts | 203° |
| 2026-05-05 17:32 | 53.76805 | -2.24530 | 15186 ft | 318 kts | 204° |
| 2026-05-05 17:32 | 53.74730 | -2.25768 | 15978 ft | 320 kts | 205° |
| 2026-05-05 17:33 | 53.72628 | -2.27050 | 16757 ft | 322 kts | 205° |
| 2026-05-05 17:33 | 53.70544 | -2.28333 | 17500 ft | 324 kts | 205° |
| 2026-05-05 17:33 | 53.68420 | -2.29645 | 18240 ft | 326 kts | 206° |
| 2026-05-05 17:33 | 53.66309 | -2.30952 | 18945 ft | 328 kts | 206° |
| 2026-05-05 17:34 | 53.64172 | -2.32274 | 19642 ft | 330 kts | 206° |
| 2026-05-05 17:34 | 53.62021 | -2.33606 | 20313 ft | 332 kts | 206° |
| 2026-05-05 17:34 | 53.59844 | -2.34951 | 20980 ft | 334 kts | 207° |
| 2026-05-05 17:34 | 53.57681 | -2.36287 | 21614 ft | 337 kts | 207° |
| 2026-05-05 17:35 | 53.55483 | -2.37642 | 22240 ft | 339 kts | 207° |
| 2026-05-05 17:35 | 53.53256 | -2.39015 | 22849 ft | 341 kts | 207° |
| 2026-05-05 17:35 | 53.51055 | -2.40369 | 23433 ft | 343 kts | 207° |
| 2026-05-05 17:35 | 53.48807 | -2.41751 | 24012 ft | 345 kts | 207° |
| 2026-05-05 17:36 | 53.46570 | -2.43199 | 24567 ft | 345 kts | 211° |
| 2026-05-05 17:36 | 53.44394 | -2.44903 | 25131 ft | 345 kts | 213° |
| 2026-05-05 17:36 | 53.42260 | -2.46683 | 25657 ft | 346 kts | 214° |
| 2026-05-05 17:36 | 53.40097 | -2.48504 | 26186 ft | 348 kts | 214° |
| 2026-05-05 17:37 | 53.37951 | -2.50303 | 26690 ft | 350 kts | 214° |
| 2026-05-05 17:37 | 53.36492 | -2.51519 | 27024 ft | 351 kts | 214° |
| 2026-05-05 17:37 | 53.33573 | -2.53942 | 27659 ft | 354 kts | 214° |
| 2026-05-05 17:37 | 53.31374 | -2.55759 | 28122 ft | 356 kts | 214° |
| 2026-05-05 17:38 | 53.29155 | -2.57588 | 28567 ft | 358 kts | 214° |
| 2026-05-05 17:38 | 53.26907 | -2.59437 | 29003 ft | 360 kts | 214° |
| 2026-05-05 17:38 | 53.24661 | -2.61280 | 29420 ft | 361 kts | 214° |
| 2026-05-05 17:38 | 53.22414 | -2.63121 | 29821 ft | 363 kts | 214° |
| 2026-05-05 17:39 | 53.20153 | -2.64971 | 30211 ft | 365 kts | 214° |
| 2026-05-05 17:39 | 53.17865 | -2.66837 | 30569 ft | 368 kts | 214° |
| 2026-05-05 17:39 | 53.15574 | -2.68695 | 31015 ft | 368 kts | 214° |
| 2026-05-05 17:39 | 53.13285 | -2.70547 | 31510 ft | 366 kts | 214° |
| 2026-05-05 17:40 | 53.11020 | -2.72381 | 32000 ft | 364 kts | 214° |
| 2026-05-05 17:40 | 53.08749 | -2.74218 | 32474 ft | 363 kts | 215° |
| 2026-05-05 17:40 | 53.06483 | -2.76052 | 32937 ft | 361 kts | 215° |
| 2026-05-05 17:40 | 53.04247 | -2.77861 | 33380 ft | 359 kts | 215° |
| 2026-05-05 17:41 | 53.02022 | -2.79661 | 33808 ft | 357 kts | 216° |
| 2026-05-05 17:41 | 52.99813 | -2.81446 | 34204 ft | 355 kts | 216° |
| 2026-05-05 17:41 | 52.97578 | -2.83253 | 34542 ft | 354 kts | 216° |
| 2026-05-05 17:41 | 52.95370 | -2.85036 | 34875 ft | 354 kts | 216° |
| 2026-05-05 17:42 | 52.93170 | -2.86809 | 35047 ft | 356 kts | 216° |
| 2026-05-05 17:42 | 52.88522 | -2.89777 | 35036 ft | 366 kts | 206° |
| 2026-05-05 17:43 | 52.83438 | -2.91306 | 35031 ft | 373 kts | 201° |
| 2026-05-05 17:43 | 52.78360 | -2.92484 | 35025 ft | 375 kts | 201° |
| 2026-05-05 17:44 | 52.73222 | -2.93667 | 35024 ft | 374 kts | 201° |
| 2026-05-05 17:44 | 52.68005 | -2.94514 | 35023 ft | 382 kts | 197° |
| 2026-05-05 17:45 | 52.62718 | -2.94906 | 35020 ft | 383 kts | 196° |
| 2026-05-05 17:45 | 52.57424 | -2.95301 | 35020 ft | 382 kts | 197° |
| 2026-05-05 17:46 | 52.52106 | -2.95717 | 35020 ft | 382 kts | 197° |
| 2026-05-05 17:46 | 52.46816 | -2.96142 | 35020 ft | 382 kts | 197° |
| 2026-05-05 17:47 | 52.41532 | -2.96571 | 35020 ft | 382 kts | 197° |
| 2026-05-05 17:47 | 52.36274 | -2.97000 | 35020 ft | 382 kts | 197° |
| 2026-05-05 17:48 | 52.30961 | -2.97433 | 35020 ft | 381 kts | 197° |
| 2026-05-05 17:48 | 52.25695 | -2.97862 | 35020 ft | 381 kts | 197° |
| 2026-05-05 17:49 | 52.20410 | -2.98292 | 35020 ft | 381 kts | 197° |
| 2026-05-05 17:49 | 52.15130 | -2.98721 | 35020 ft | 381 kts | 197° |
| 2026-05-05 17:50 | 52.09856 | -2.99149 | 35012 ft | 381 kts | 197° |
| 2026-05-05 17:50 | 52.04559 | -2.99577 | 35003 ft | 381 kts | 197° |
| 2026-05-05 17:51 | 51.99308 | -3.00000 | 34994 ft | 381 kts | 197° |
| 2026-05-05 17:51 | 51.94008 | -3.00426 | 34993 ft | 381 kts | 197° |
| 2026-05-05 17:52 | 51.88761 | -3.00847 | 34993 ft | 381 kts | 197° |
| 2026-05-05 17:52 | 51.86138 | -3.01190 | 35171 ft | 376 kts | 200° |
| 2026-05-05 17:52 | 51.83530 | -3.01719 | 35524 ft | 373 kts | 201° |
| 2026-05-05 17:52 | 51.80967 | -3.02284 | 35777 ft | 374 kts | 201° |
| 2026-05-05 17:53 | 51.78405 | -3.02850 | 35987 ft | 375 kts | 201° |
| 2026-05-05 17:53 | 51.73255 | -3.03962 | 35993 ft | 372 kts | 200° |
| 2026-05-05 17:54 | 51.68185 | -3.05030 | 35993 ft | 369 kts | 201° |
| 2026-05-05 17:54 | 51.63108 | -3.06098 | 35993 ft | 371 kts | 200° |
| 2026-05-05 17:55 | 51.57982 | -3.07167 | 35993 ft | 371 kts | 200° |
| 2026-05-05 17:55 | 51.52880 | -3.08223 | 35993 ft | 370 kts | 200° |
| 2026-05-05 17:56 | 51.47791 | -3.09273 | 35993 ft | 370 kts | 200° |
| 2026-05-05 17:56 | 51.42692 | -3.10324 | 35993 ft | 370 kts | 200° |
| 2026-05-05 17:57 | 51.37602 | -3.11370 | 35993 ft | 370 kts | 200° |
| 2026-05-05 17:57 | 51.32533 | -3.12409 | 35993 ft | 369 kts | 200° |
| 2026-05-05 17:58 | 51.27434 | -3.13452 | 35993 ft | 369 kts | 200° |
| 2026-05-05 17:58 | 51.22377 | -3.14485 | 35993 ft | 369 kts | 200° |
| 2026-05-05 17:59 | 51.17282 | -3.15523 | 35992 ft | 369 kts | 200° |
| 2026-05-05 17:59 | 51.12188 | -3.16558 | 35991 ft | 369 kts | 200° |
| 2026-05-05 18:00 | 51.07124 | -3.17584 | 35988 ft | 369 kts | 200° |
| 2026-05-05 18:00 | 51.02042 | -3.18613 | 35985 ft | 369 kts | 200° |
| 2026-05-05 18:01 | 50.96951 | -3.19640 | 35978 ft | 369 kts | 201° |
| 2026-05-05 18:01 | 50.91918 | -3.20646 | 35762 ft | 361 kts | 201° |
| 2026-05-05 18:01 | 50.89445 | -3.21127 | 35198 ft | 352 kts | 202° |
| 2026-05-05 18:02 | 50.87068 | -3.21595 | 34687 ft | 347 kts | 202° |
| 2026-05-05 18:02 | 50.84659 | -3.22089 | 34152 ft | 354 kts | 202° |
| 2026-05-05 18:02 | 50.82200 | -3.22598 | 33575 ft | 356 kts | 202° |
| 2026-05-05 18:02 | 50.79779 | -3.23071 | 33028 ft | 355 kts | 201° |
| 2026-05-05 18:03 | 50.77240 | -3.23389 | 32443 ft | 373 kts | 196° |
| 2026-05-05 18:03 | 50.74641 | -3.23272 | 31818 ft | 382 kts | 189° |
| 2026-05-05 18:03 | 50.72031 | -3.22710 | 31294 ft | 379 kts | 186° |
| 2026-05-05 18:03 | 50.69432 | -3.22020 | 30840 ft | 387 kts | 185° |
| 2026-05-05 18:04 | 50.66759 | -3.21292 | 30311 ft | 388 kts | 185° |
| 2026-05-05 18:04 | 50.64116 | -3.20547 | 29795 ft | 378 kts | 185° |
| 2026-05-05 18:04 | 50.61528 | -3.19818 | 29310 ft | 374 kts | 185° |
| 2026-05-05 18:04 | 50.58975 | -3.19124 | 28833 ft | 381 kts | 184° |
| 2026-05-05 18:05 | 50.56392 | -3.18414 | 28320 ft | 373 kts | 184° |
| 2026-05-05 18:05 | 50.53883 | -3.17714 | 27844 ft | 364 kts | 184° |
| 2026-05-05 18:05 | 50.51374 | -3.17032 | 27386 ft | 371 kts | 184° |
| 2026-05-05 18:05 | 50.48817 | -3.16342 | 26886 ft | 369 kts | 184° |
| 2026-05-05 18:06 | 50.46349 | -3.15660 | 26415 ft | 358 kts | 184° |
| 2026-05-05 18:06 | 50.45519 | -3.15430 | 26264 ft | 356 kts | 184° |
| 2026-05-05 18:06 | 50.41392 | -3.14316 | 25490 ft | 364 kts | 182° |
| 2026-05-05 18:06 | 50.38960 | -3.13479 | 25027 ft | 360 kts | 178° |
| 2026-05-05 18:07 | 50.36554 | -3.12284 | 24579 ft | 370 kts | 171° |
| 2026-05-05 18:07 | 50.34149 | -3.10596 | 24099 ft | 382 kts | 166° |
| 2026-05-05 18:07 | 50.31842 | -3.08738 | 23604 ft | 375 kts | 164° |
| 2026-05-05 18:07 | 50.29549 | -3.06840 | 23131 ft | 373 kts | 164° |
| 2026-05-05 18:08 | 50.27247 | -3.04944 | 22658 ft | 380 kts | 163° |
| 2026-05-05 18:08 | 50.24940 | -3.03029 | 22153 ft | 372 kts | 163° |
| 2026-05-05 18:08 | 50.22672 | -3.01144 | 21682 ft | 367 kts | 163° |
| 2026-05-05 18:08 | 50.20411 | -2.99283 | 21219 ft | 374 kts | 162° |
| 2026-05-05 18:09 | 50.18130 | -2.97398 | 20711 ft | 367 kts | 162° |
| 2026-05-05 18:09 | 50.15917 | -2.95565 | 20244 ft | 361 kts | 162° |
| 2026-05-05 18:09 | 50.13668 | -2.93719 | 19778 ft | 369 kts | 162° |
| 2026-05-05 18:09 | 50.11399 | -2.91849 | 19264 ft | 362 kts | 161° |
| 2026-05-05 18:10 | 50.09228 | -2.90057 | 18795 ft | 356 kts | 161° |
| 2026-05-05 18:10 | 50.07008 | -2.88240 | 18334 ft | 364 kts | 161° |
| 2026-05-05 18:10 | 50.04805 | -2.86431 | 17838 ft | 357 kts | 160° |
| 2026-05-05 18:10 | 50.02621 | -2.84646 | 17360 ft | 348 kts | 161° |
| 2026-05-05 18:11 | 50.00420 | -2.83077 | 16920 ft | 350 kts | 167° |
| 2026-05-05 18:11 | 49.98134 | -2.81866 | 16442 ft | 339 kts | 172° |
| 2026-05-05 18:11 | 49.95924 | -2.80904 | 15998 ft | 331 kts | 173° |
| 2026-05-05 18:11 | 49.93651 | -2.79985 | 15564 ft | 338 kts | 173° |
| 2026-05-05 18:12 | 49.91405 | -2.79087 | 15095 ft | 330 kts | 173° |
| 2026-05-05 18:12 | 49.89201 | -2.78208 | 14663 ft | 327 kts | 173° |
| 2026-05-05 18:12 | 49.86985 | -2.77336 | 14228 ft | 330 kts | 173° |
| 2026-05-05 18:12 | 49.84788 | -2.76464 | 13771 ft | 322 kts | 172° |
| 2026-05-05 18:13 | 49.82634 | -2.75613 | 13358 ft | 324 kts | 172° |
| 2026-05-05 18:13 | 49.80447 | -2.74754 | 12913 ft | 323 kts | 172° |
| 2026-05-05 18:13 | 49.78284 | -2.73897 | 12465 ft | 315 kts | 172° |
| 2026-05-05 18:13 | 49.76152 | -2.73060 | 12057 ft | 321 kts | 172° |
| 2026-05-05 18:14 | 49.74035 | -2.72228 | 11609 ft | 315 kts | 171° |
| 2026-05-05 18:14 | 49.71920 | -2.71395 | 11194 ft | 316 kts | 171° |
| 2026-05-05 18:14 | 49.69775 | -2.70557 | 10760 ft | 318 kts | 171° |
| 2026-05-05 18:14 | 49.67664 | -2.69726 | 10317 ft | 311 kts | 171° |
| 2026-05-05 18:15 | 49.65548 | -2.68897 | 10066 ft | 308 kts | 171° |
| 2026-05-05 18:15 | 49.63550 | -2.68107 | 9994 ft | 288 kts | 171° |
| 2026-05-05 18:15 | 49.61671 | -2.67369 | 9930 ft | 284 kts | 171° |
| 2026-05-05 18:15 | 49.59695 | -2.66605 | 9586 ft | 291 kts | 171° |
| 2026-05-05 18:16 | 49.57761 | -2.65851 | 9163 ft | 285 kts | 170° |
| 2026-05-05 18:16 | 49.55878 | -2.65114 | 8823 ft | 278 kts | 170° |
| 2026-05-05 18:16 | 49.53984 | -2.64377 | 8503 ft | 285 kts | 170° |
| 2026-05-05 18:16 | 49.52056 | -2.63627 | 8192 ft | 283 kts | 169° |
| 2026-05-05 18:17 | 49.50147 | -2.62884 | 7950 ft | 285 kts | 169° |
| 2026-05-05 18:17 | 49.48290 | -2.61874 | 7680 ft | 289 kts | 148° |
| 2026-05-05 18:17 | 49.46817 | -2.59761 | 7446 ft | 290 kts | 128° |
| 2026-05-05 18:17 | 49.45682 | -2.57210 | 7211 ft | 290 kts | 121° |
| 2026-05-05 18:18 | 49.44658 | -2.54561 | 6960 ft | 288 kts | 119° |
| 2026-05-05 18:18 | 49.43663 | -2.51909 | 6709 ft | 286 kts | 119° |
| 2026-05-05 18:18 | 49.42667 | -2.49256 | 6457 ft | 284 kts | 119° |
| 2026-05-05 18:18 | 49.41679 | -2.46631 | 6204 ft | 283 kts | 118° |
| 2026-05-05 18:19 | 49.40703 | -2.44045 | 5954 ft | 281 kts | 118° |
| 2026-05-05 18:19 | 49.39727 | -2.41467 | 5704 ft | 280 kts | 118° |
| 2026-05-05 18:19 | 49.38743 | -2.38870 | 5452 ft | 278 kts | 118° |
| 2026-05-05 18:19 | 49.37777 | -2.36322 | 5202 ft | 277 kts | 118° |
| 2026-05-05 18:20 | 49.36799 | -2.33748 | 4996 ft | 274 kts | 119° |
| 2026-05-05 18:20 | 49.36166 | -2.32081 | 4991 ft | 274 kts | 119° |
| 2026-05-05 18:20 | 49.34879 | -2.28692 | 4993 ft | 277 kts | 119° |
| 2026-05-05 18:20 | 49.33899 | -2.26118 | 4992 ft | 277 kts | 119° |
| 2026-05-05 18:21 | 49.32943 | -2.23610 | 4965 ft | 268 kts | 119° |
| 2026-05-05 18:21 | 49.31989 | -2.21112 | 4945 ft | 273 kts | 119° |
| 2026-05-05 18:21 | 49.31024 | -2.18583 | 4714 ft | 280 kts | 119° |
| 2026-05-05 18:21 | 49.30046 | -2.16025 | 4264 ft | 277 kts | 119° |
| 2026-05-05 18:22 | 49.29083 | -2.13512 | 3885 ft | 271 kts | 119° |
| 2026-05-05 18:22 | 49.28146 | -2.11047 | 3549 ft | 267 kts | 115° |
| 2026-05-05 18:22 | 49.27664 | -2.08350 | 3254 ft | 260 kts | 89° |
| 2026-05-05 18:22 | 49.27705 | -2.05619 | 3031 ft | 258 kts | 82° |
| 2026-05-05 18:23 | 49.27848 | -2.02882 | 2772 ft | 252 kts | 82° |
| 2026-05-05 18:23 | 49.27993 | -2.00277 | 2529 ft | 240 kts | 81° |
| 2026-05-05 18:23 | 49.28129 | -1.97797 | 2278 ft | 229 kts | 81° |
| 2026-05-05 18:23 | 49.28168 | -1.95420 | 2009 ft | 222 kts | 99° |
| 2026-05-05 18:24 | 49.27463 | -1.93390 | 1986 ft | 213 kts | 137° |
| 2026-05-05 18:24 | 49.26161 | -1.92352 | 2003 ft | 214 kts | 171° |
| 2026-05-05 18:24 | 49.24707 | -1.92471 | 1991 ft | 210 kts | 206° |
| 2026-05-05 18:24 | 49.23580 | -1.93771 | 2023 ft | 197 kts | 237° |
| 2026-05-05 18:25 | 49.22984 | -1.95516 | 1982 ft | 178 kts | 258° |
| 2026-05-05 18:25 | 49.22877 | -1.96130 | 1977 ft | 175 kts | 263° |
| 2026-05-05 18:25 | 49.22545 | -1.99127 | 2011 ft | 171 kts | 264° |
| 2026-05-05 18:25 | 49.22346 | -2.00896 | 1967 ft | 162 kts | 266° |
| 2026-05-05 18:26 | 49.22191 | -2.02595 | 1999 ft | 161 kts | 268° |
| 2026-05-05 18:26 | 49.22051 | -2.04304 | 1993 ft | 163 kts | 268° |
| 2026-05-05 18:26 | 49.21912 | -2.06022 | 1914 ft | 164 kts | 268° |
| 2026-05-05 18:26 | 49.21774 | -2.07684 | 1690 ft | 149 kts | 268° |
| 2026-05-05 18:27 | 49.21646 | -2.09236 | 1495 ft | 147 kts | 268° |
| 2026-05-05 18:27 | 49.21524 | -2.10752 | 1308 ft | 145 kts | 268° |
| 2026-05-05 18:27 | 49.21392 | -2.12288 | 1117 ft | 146 kts | 268° |
| 2026-05-05 18:27 | 49.21270 | -2.13850 | 948 ft | 148 kts | 268° |
| 2026-05-05 18:28 | 49.21002 | -2.16934 | 509 ft | 143 kts | 268° |
| 2026-05-05 18:28 | 49.20885 | -2.18430 | 322 ft | 142 kts | 268° |
| 2026-05-05 18:28 | 49.20776 | -2.19812 | 271 ft | 100 kts | 262° |
| 2026-05-05 18:29 | 49.20728 | -2.20354 | 276 ft | 22 kts | 263° |
| 2026-05-05 18:29 | 49.20710 | -2.20569 | 271 ft | 15 kts | 263° |
| 2026-05-05 18:29 | 49.20681 | -2.20682 | 267 ft | 10 kts | 204° |
| 2026-05-05 18:29 | 49.20634 | -2.20663 | 267 ft | 5 kts | 127° |
| 2026-05-05 18:30 | 49.20626 | -2.20619 | 268 ft | 5 kts | 96° |
| 2026-05-05 18:30 | 49.20622 | -2.20531 | 271 ft | 10 kts | 94° |
| 2026-05-05 18:30 | 49.20608 | -2.20430 | 274 ft | 6 kts | 106° |
| 2026-05-05 18:30 | 49.20595 | -2.20368 | 275 ft | 7 kts | 108° |
| 2026-05-05 18:31 | 49.20575 | -2.20278 | 275 ft | 10 kts | 109° |
| 2026-05-05 18:31 | 49.20552 | -2.20167 | 274 ft | 9 kts | 108° |
| 2026-05-05 18:31 | 49.20534 | -2.20079 | 274 ft | 8 kts | 107° |
| 2026-05-05 18:31 | 49.20516 | -2.19988 | 273 ft | 9 kts | 106° |
| 2026-05-05 18:32 | 49.20534 | -2.19927 | 272 ft | 7 kts | 15° |
| 2026-05-05 18:32 | 49.20595 | -2.19913 | 271 ft | 8 kts | 41° |
| 2026-05-05 18:32 | 49.20605 | -2.19855 | 272 ft | 3 kts | 85° |
| 2026-05-05 18:32 | 49.20607 | -2.19814 | 272 ft | 4 kts | 84° |
| 2026-05-05 18:33 | 49.20605 | -2.19765 | 273 ft | 4 kts | 121° |
| 2026-05-05 18:33 | 49.20584 | -2.19752 | 273 ft | 2 kts | 174° |
| 2026-05-05 18:33 | 49.20569 | -2.19749 | 273 ft | 2 kts | 174° |
| 2026-05-05 18:33 | 49.20554 | -2.19747 | 273 ft | 1 kts | 174° |
| 2026-05-05 18:34 | 49.20552 | -2.19746 | 273 ft | 0 kts | 174° |